Bayside, NY (11364)

9:38 AM EDT on September 17, 2014 (GMT -0400)
Just West of Town Hall | Change Station
CLOSE
Current Station
Personal Weather Station
Location: Floral Park, NY
Elevation: 78 ft
Nearby Weather Stations

Elev 78 ft 40.72 °N, 73.71 °W | Updated 3 seconds ago

Clear
Clear
64.6 °F
Feels Like 64.6 °F
N
0.0
Wind Variable Wind from North
Gusts 0.0 mph

Today
High -- | Low -- °F
--% Chance of Precip.
Yesterday
High -- | Low -- °F
Precip. -- in
6:37 AM 7:00 PM
Waning Crescent, 36% visible
Pressure 30.06 in
Visibility 10.0 miles
Clouds Few 25000 ft
Dew Point 50 °F
Humidity 59%
Rainfall 0.00 in
Snow Depth Not available.
UV 2 out of 12
Pollen 3.70 out of 12
Air Quality Not available.
Flu Activity Not available.
METAR KLGA 171251Z 04005KT 10SM FEW250 17/09 A3005 RMK AO2 SLP177 T01670094

More Conditions Fewer Conditions

Pressure 30.06 in
Visibility 10.0 miles
Clouds Few 25000 ft
Dew Point 50 °F
Humidity 59%
Rainfall 0.00 in
Snow Depth Not available.
UV 2 out of 12
Pollen 3.70 out of 12
Air Quality Not available.
Flu Activity Not available.
METAR KLGA 171251Z 04005KT 10SM FEW250 17/09 A3005 RMK AO2 SLP177 T01670094

More Conditions Fewer Conditions

10-Day Weather Forecast

Almanac

Astronomy

Sep. 17, 2014 Rise Set
Actual Time 6:37 AM EDT 7:00 PM EDT
Civil Twilight 6:10 AM EDT 7:28 PM EDT
Nautical Twilight 5:37 AM EDT 8:00 PM EDT
Astronomical Twilight 5:04 AM EDT 8:33 PM EDT
Moon 12:33 AM EDT 3:09 PM EDT
Length of Visible Light 13h 17m
Length of Day
12h 23m
Tomorrow will be 2m 41s shorter.
Waning Crescent, 36% of the Moon is Illuminated
Today
Waning Crescent
Sep 24
New
Oct 1
First Quarter
Oct 8
Full
Oct 15
Last Quarter

Today's Extremes

State Highs State Lows

Community

WunderPhotos

Upload Photos

1,754,029 photos uploaded!

Nearby

Snow Depth

Station Depth Elevation
No new snow has been reported.

Earthquake Activity

City Distance Mag. Time & Date
No recent earthquake activity has been reported nearby.
Minimum magnitude displayed is 2.5.

Coastal Water Temperatures

Place Temperature
Kings Point, NY 68.0 °F
Bridgeport, CT 69.1 °F

Nearby Weather Stations